Main page
METAR-TAF:

METAR-TAF

Airports :

Tallinn Airport

Tallinn, Estonia

latitude: 59-23N, longitude: 024-35E, elevation: 44 m

Current weather observation

The report was made 39 minutes ago, at 12:20 UTC
Wind 10 kt from the West/Southwest
Temperature 16°C
Humidity 77%
Pressure 1012 hPa
Visibility 10 km or more
Broken clouds at a height of 2200 ft

METAR: EETN 211220Z 24010KT 9999 BKN022 16/12 Q1012 NOSIG

Time: 15:59 (12:59 UTC)

Forecast

The report was made 1 hour and 29 minutes ago, at 11:30 UTC
Forecast valid from 21 at 12 UTC to 22 at 12 UTC
Wind 14 kt from the West/Southwest
Visibility 10 km or more
Broken clouds at a height of 2000 ft
Temporary
from 21 at 14 UTC to 21 at 22 UTC
Wind 16 kt from the Southwest with gusts up to 28 kt
Probability 40% :
Temporary
from 21 at 21 UTC to 22 at 02 UTC
Broken clouds at a height of 600 ft

TAF: EETN 211130Z 2112/2212 25014KT 9999 BKN020 TEMPO 2114/2122 22016G28KT PROB40 TEMPO 2121/2202 BKN006

Weather observations and forecasts of more than 4000 airports (METAR and TAF reports).

The available stations are represented by yellow and red dots on the map.

Hover mouse over dot to see the name of the station.

Then click to see weather observations and forecasts.

To change the map : click on the green buttons with a black cross to zoom in, on the green button with a dash to zoom out, or on the green arrows for adjacent maps.


METAR-TAF: